createdAt,value
2022-08-27T00:04:33.284Z,100.00
2022-08-27T00:09:36.122Z,100.00
2022-08-27T00:14:52.233Z,100.00
2022-08-27T00:20:06.794Z,100.00
2022-08-27T00:25:09.515Z,100.00
2022-08-27T00:30:18.519Z,100.00
2022-08-27T00:35:20.736Z,100.00
2022-08-27T00:40:23.521Z,100.00
2022-08-27T00:45:26.884Z,100.00
2022-08-27T00:50:32.956Z,100.00
2022-08-27T00:55:40.435Z,100.00
2022-08-27T01:00:46.147Z,100.00
2022-08-27T01:05:50.331Z,100.00
2022-08-27T01:10:56.101Z,100.00
2022-08-27T01:15:59.533Z,100.00
2022-08-27T01:21:14.428Z,100.00
2022-08-27T01:26:17.535Z,100.00
2022-08-27T01:31:19.586Z,100.00
2022-08-27T01:36:22.077Z,100.00
2022-08-27T01:41:25.203Z,100.00
2022-08-27T01:46:29.107Z,100.00
2022-08-27T01:51:31.188Z,100.00
2022-08-27T01:56:33.475Z,100.00
2022-08-27T02:01:35.842Z,100.00
2022-08-27T02:06:58.229Z,100.00
2022-08-27T02:12:08.262Z,100.00
2022-08-27T02:17:12.508Z,100.00
2022-08-27T02:22:14.401Z,100.00
2022-08-27T02:27:16.587Z,100.00
2022-08-27T02:32:31.721Z,100.00
2022-08-27T02:37:34.286Z,100.00
2022-08-27T02:42:36.351Z,100.00
2022-08-27T02:47:38.331Z,100.00
2022-08-27T02:52:50.895Z,100.00
2022-08-27T02:57:53.555Z,100.00
2022-08-27T03:03:17.344Z,100.00
2022-08-27T03:08:29.092Z,100.00
2022-08-27T03:13:39.123Z,100.00
2022-08-27T03:18:41.304Z,100.00
2022-08-27T03:24:01.204Z,100.00
2022-08-27T03:29:16.902Z,100.00
2022-08-27T03:34:19.744Z,100.00
2022-08-27T03:39:21.993Z,100.00
2022-08-27T03:44:27.657Z,100.00
2022-08-27T03:49:30.047Z,100.00
2022-08-27T03:54:38.067Z,100.00
2022-08-27T03:59:40.049Z,100.00
2022-08-27T04:04:42.134Z,100.00
2022-08-27T04:09:44.524Z,100.00
2022-08-27T04:14:46.705Z,100.00
2022-08-27T04:19:51.071Z,100.00
2022-08-27T04:24:53.293Z,100.00
2022-08-27T04:29:56.517Z,100.00
2022-08-27T04:35:00.244Z,100.00
2022-08-27T04:40:02.527Z,100.00
2022-08-27T04:45:05.962Z,100.00
2022-08-27T04:50:09.369Z,100.00
2022-08-27T04:55:11.456Z,100.00
2022-08-27T05:00:14.571Z,100.00
2022-08-27T05:05:16.695Z,100.00
2022-08-27T05:10:19.139Z,100.00
2022-08-27T05:15:22.110Z,100.00
2022-08-27T05:20:24.425Z,100.00
2022-08-27T05:25:27.635Z,100.00
2022-08-27T05:30:29.618Z,100.00
2022-08-27T05:35:33.025Z,100.00
2022-08-27T05:40:36.175Z,100.00
2022-08-27T05:45:47.322Z,100.00
2022-08-27T05:50:57.333Z,100.00
2022-08-27T05:56:13.457Z,100.00
2022-08-27T06:01:18.533Z,100.00
2022-08-27T06:06:23.006Z,100.00
2022-08-27T06:11:25.110Z,100.00
2022-08-27T06:16:28.212Z,100.00
2022-08-27T06:21:30.681Z,100.00
2022-08-27T06:26:33.098Z,100.00
2022-08-27T06:31:35.970Z,100.00
2022-08-27T06:36:40.502Z,100.00
2022-08-27T06:41:43.509Z,100.00
2022-08-27T06:46:48.347Z,100.00
2022-08-27T06:51:50.854Z,100.00
2022-08-27T06:56:52.939Z,100.00
2022-08-27T07:01:54.871Z,100.00
2022-08-27T07:06:57.129Z,100.00
2022-08-27T07:12:17.358Z,99.63
2022-08-27T07:17:19.390Z,96.87
2022-08-27T07:22:21.440Z,96.02
2022-08-27T07:27:23.667Z,93.20
2022-08-27T07:32:31.824Z,92.12
2022-08-27T07:37:35.234Z,89.83
2022-08-27T07:42:55.920Z,89.42
2022-08-27T07:47:58.098Z,88.41
2022-08-27T07:53:00.180Z,89.08
2022-08-27T07:58:02.267Z,88.19
2022-08-27T08:03:05.678Z,86.24
2022-08-27T08:08:08.433Z,82.66
2022-08-27T08:13:10.376Z,80.75
2022-08-27T08:18:12.972Z,78.39
2022-08-27T08:23:15.647Z,82.21
2022-08-27T08:28:20.137Z,81.47
2022-08-27T08:33:22.878Z,80.15
2022-08-27T08:38:26.278Z,79.93
2022-08-27T08:43:40.243Z,77.63
2022-08-27T08:48:49.422Z,74.56
2022-08-27T08:53:55.482Z,75.03
2022-08-27T08:59:09.027Z,73.98
2022-08-27T09:04:18.179Z,71.42
2022-08-27T09:09:31.460Z,72.15
2022-08-27T09:14:45.182Z,71.11
2022-08-27T09:19:48.492Z,69.39
2022-08-27T09:25:00.503Z,68.90
2022-08-27T09:30:09.754Z,69.83
2022-08-27T09:35:27.322Z,71.26
2022-08-27T09:40:52.740Z,69.55
2022-08-27T09:46:01.122Z,67.77
2022-08-27T09:51:08.902Z,67.46
2022-08-27T09:56:24.847Z,68.48
2022-08-27T10:01:51.263Z,67.03
2022-08-27T10:07:28.845Z,65.65
2022-08-27T10:12:55.343Z,61.45
2022-08-27T10:18:02.153Z,60.04
2022-08-27T10:23:15.138Z,59.36
2022-08-27T10:28:44.861Z,58.64
2022-08-27T10:34:13.873Z,58.85
2022-08-27T10:39:45.140Z,57.05
2022-08-27T10:45:30.643Z,57.40
2022-08-27T10:50:49.519Z,55.89
2022-08-27T10:55:59.175Z,56.13
2022-08-27T11:01:41.502Z,56.19
2022-08-27T11:06:52.606Z,55.29
2022-08-27T11:12:15.466Z,57.09
2022-08-27T11:17:27.056Z,56.16
2022-08-27T11:22:40.932Z,52.78
2022-08-27T11:27:45.806Z,52.49
2022-08-27T11:33:26.056Z,49.49
2022-08-27T11:38:28.339Z,49.30
2022-08-27T11:43:35.629Z,48.97
2022-08-27T11:48:43.217Z,49.70
2022-08-27T11:54:01.879Z,46.83
2022-08-27T11:59:11.039Z,46.94
2022-08-27T12:04:42.952Z,49.06
2022-08-27T12:09:56.815Z,51.07
2022-08-27T12:15:06.373Z,52.86
2022-08-27T12:20:44.333Z,53.15
2022-08-27T12:26:00.543Z,54.40
2022-08-27T12:31:06.892Z,57.25
2022-08-27T12:36:15.760Z,59.13
2022-08-27T12:41:32.141Z,61.04
2022-08-27T12:46:50.570Z,61.64
2022-08-27T12:51:53.651Z,59.90
2022-08-27T12:57:42.400Z,59.69
2022-08-27T13:03:22.452Z,61.18
2022-08-27T13:08:27.936Z,61.74
2022-08-27T13:13:30.015Z,61.78
2022-08-27T13:18:32.837Z,60.78
2022-08-27T13:23:35.717Z,60.12
2022-08-27T13:28:42.185Z,60.59
2022-08-27T13:33:45.089Z,60.68
2022-08-27T13:38:50.280Z,57.67
2022-08-27T13:43:57.065Z,54.59
2022-08-27T13:49:30.290Z,54.91
2022-08-27T13:54:34.072Z,55.57
2022-08-27T13:59:43.372Z,56.65
2022-08-27T14:04:52.005Z,55.32
2022-08-27T14:09:58.498Z,53.61
2022-08-27T14:15:19.486Z,52.43
2022-08-27T14:20:22.750Z,50.80
2022-08-27T14:25:24.881Z,51.94
2022-08-27T14:30:29.121Z,52.21
2022-08-27T14:35:34.702Z,52.06
2022-08-27T14:40:37.135Z,51.45
2022-08-27T14:45:41.662Z,52.06
2022-08-27T14:50:44.712Z,51.42
2022-08-27T14:55:51.905Z,50.04
2022-08-27T15:00:56.453Z,49.45
2022-08-27T15:06:08.369Z,47.76
2022-08-27T15:11:29.283Z,45.65
2022-08-27T15:16:54.411Z,45.27
2022-08-27T15:22:12.866Z,45.39
2022-08-27T15:27:17.518Z,45.46
2022-08-27T15:32:33.027Z,46.55
2022-08-27T15:37:35.404Z,48.22
2022-08-27T15:42:37.995Z,48.22
2022-08-27T15:47:39.986Z,48.20
2022-08-27T15:52:42.816Z,48.38
2022-08-27T15:57:51.032Z,49.04
2022-08-27T16:03:14.276Z,49.98
2022-08-27T16:08:20.867Z,49.58
2022-08-27T16:13:25.066Z,49.23
2022-08-27T16:18:29.770Z,48.20
2022-08-27T16:23:32.982Z,46.85
2022-08-27T16:28:35.243Z,47.09
2022-08-27T16:33:42.548Z,49.68
2022-08-27T16:38:44.932Z,50.99
2022-08-27T16:43:48.947Z,52.71
2022-08-27T16:49:10.093Z,54.62
2022-08-27T16:54:13.178Z,56.68
2022-08-27T16:59:16.101Z,58.24
2022-08-27T17:04:28.920Z,59.81
2022-08-27T17:09:32.656Z,61.20
2022-08-27T17:14:39.335Z,63.28
2022-08-27T17:20:01.396Z,65.38
2022-08-27T17:25:07.697Z,67.46
2022-08-27T17:30:10.366Z,69.49
2022-08-27T17:35:14.297Z,71.60
2022-08-27T17:40:16.402Z,73.88
2022-08-27T17:45:18.850Z,75.77
2022-08-27T17:50:20.878Z,78.06
2022-08-27T17:55:23.240Z,79.98
2022-08-27T18:00:25.629Z,81.30
2022-08-27T18:05:28.231Z,82.05
2022-08-27T18:10:32.419Z,84.04
2022-08-27T18:15:38.281Z,85.91
2022-08-27T18:20:42.629Z,87.51
2022-08-27T18:25:45.679Z,89.40
2022-08-27T18:30:49.559Z,90.82
2022-08-27T18:35:51.895Z,92.03
2022-08-27T18:40:55.396Z,93.69
2022-08-27T18:45:57.954Z,96.00
2022-08-27T18:51:03.013Z,97.92
2022-08-27T18:56:05.765Z,99.43
2022-08-27T19:01:14.126Z,100.00
2022-08-27T19:06:18.617Z,100.00
2022-08-27T19:11:20.584Z,100.00
2022-08-27T19:16:30.818Z,100.00
2022-08-27T19:21:53.313Z,100.00
2022-08-27T19:26:55.917Z,100.00
2022-08-27T19:31:58.059Z,100.00
2022-08-27T19:37:01.850Z,100.00
2022-08-27T19:42:05.312Z,100.00
2022-08-27T19:47:09.366Z,100.00
2022-08-27T19:52:11.457Z,100.00
2022-08-27T19:57:13.531Z,100.00
2022-08-27T20:02:15.611Z,100.00
2022-08-27T20:07:18.001Z,100.00
2022-08-27T20:12:20.527Z,100.00
2022-08-27T20:17:22.636Z,100.00
2022-08-27T20:22:27.217Z,100.00
2022-08-27T20:27:29.123Z,100.00
2022-08-27T20:32:31.378Z,100.00
2022-08-27T20:37:40.061Z,100.00
2022-08-27T20:42:44.763Z,100.00
2022-08-27T20:47:49.359Z,100.00
2022-08-27T20:52:52.404Z,100.00
2022-08-27T20:58:13.543Z,100.00
2022-08-27T21:03:15.850Z,100.00
2022-08-27T21:08:20.133Z,100.00
2022-08-27T21:13:23.163Z,100.00
2022-08-27T21:18:29.944Z,100.00
2022-08-27T21:23:48.421Z,100.00
2022-08-27T21:28:54.690Z,100.00
2022-08-27T21:33:58.633Z,100.00
2022-08-27T21:39:00.916Z,100.00
2022-08-27T21:44:03.915Z,100.00
2022-08-27T21:49:05.897Z,100.00
2022-08-27T21:54:07.981Z,100.00
2022-08-27T21:59:23.317Z,100.00
2022-08-27T22:04:32.313Z,100.00
2022-08-27T22:09:35.426Z,100.00
2022-08-27T22:14:38.221Z,100.00
2022-08-27T22:19:40.188Z,100.00
2022-08-27T22:24:42.223Z,100.00
2022-08-27T22:30:01.910Z,100.00
2022-08-27T22:35:04.979Z,100.00
2022-08-27T22:40:18.454Z,100.00
2022-08-27T22:45:22.050Z,100.00
2022-08-27T22:50:24.751Z,100.00
2022-08-27T22:55:27.752Z,100.00
2022-08-27T23:00:52.722Z,100.00
2022-08-27T23:06:07.850Z,100.00
2022-08-27T23:11:09.941Z,100.00
2022-08-27T23:16:12.506Z,100.00
2022-08-27T23:21:14.816Z,100.00
2022-08-27T23:26:35.641Z,100.00
2022-08-27T23:31:38.361Z,100.00
2022-08-27T23:36:40.405Z,100.00
2022-08-27T23:41:44.170Z,100.00
2022-08-27T23:46:48.143Z,100.00
2022-08-27T23:51:50.362Z,100.00
2022-08-27T23:56:52.239Z,100.00
